createdAt,value
2018-05-31T00:01:26.536Z,103034.28
2018-05-31T00:03:52.925Z,103033.44
2018-05-31T00:06:21.036Z,103035.76
2018-05-31T00:08:47.566Z,103038.94
2018-05-31T00:11:13.971Z,103033.27
2018-05-31T00:13:40.250Z,103033.36
2018-05-31T00:16:06.611Z,103036.17
2018-05-31T00:18:33.042Z,103029.17
2018-05-31T00:20:59.258Z,103030.56
2018-05-31T00:23:25.712Z,103029.77
2018-05-31T00:25:52.135Z,103034.80
2018-05-31T00:28:18.369Z,103030.07
2018-05-31T00:30:44.821Z,103039.08
2018-05-31T00:33:11.295Z,103042.25
2018-05-31T00:35:37.730Z,103044.11
2018-05-31T00:38:04.233Z,103047.72
2018-05-31T00:40:30.758Z,103046.52
2018-05-31T00:42:57.013Z,103044.38
2018-05-31T00:45:23.567Z,103049.77
2018-05-31T00:47:49.917Z,103060.51
2018-05-31T00:50:16.154Z,103064.16
2018-05-31T00:52:42.696Z,103069.98
2018-05-31T00:55:09.115Z,103070.03
2018-05-31T00:57:35.303Z,103070.56
2018-05-31T01:00:01.657Z,103075.95
2018-05-31T01:02:27.943Z,103079.64
2018-05-31T01:04:54.228Z,103078.38
2018-05-31T01:07:20.513Z,103081.14
2018-05-31T01:09:47.009Z,103086.08
2018-05-31T01:12:13.207Z,103086.56
2018-05-31T01:14:39.561Z,103087.95
2018-05-31T01:17:06.052Z,103087.13
2018-05-31T01:19:32.298Z,103084.09
2018-05-31T01:21:58.560Z,103078.38
2018-05-31T01:24:25.103Z,103086.48
2018-05-31T01:26:51.344Z,103083.89
2018-05-31T01:29:17.841Z,103086.64
2018-05-31T01:31:44.312Z,103087.20
2018-05-31T01:34:10.599Z,103083.27
2018-05-31T01:36:37.150Z,103083.34
2018-05-31T01:39:03.739Z,103078.98
2018-05-31T01:41:30.003Z,103073.27
2018-05-31T01:43:56.311Z,103070.70
2018-05-31T01:46:22.806Z,103064.66
2018-05-31T01:48:49.023Z,103077.53
2018-05-31T01:51:15.479Z,103075.42
2018-05-31T01:53:41.908Z,103086.55
2018-05-31T01:56:08.137Z,103082.17
2018-05-31T01:58:34.593Z,103077.35
2018-05-31T02:01:00.873Z,103084.55
2018-05-31T02:03:27.129Z,103085.47
2018-05-31T02:05:53.518Z,103079.31
2018-05-31T02:08:20.018Z,103076.72
2018-05-31T02:10:46.247Z,103075.04
2018-05-31T02:13:12.704Z,103070.29
2018-05-31T02:15:39.130Z,103069.41
2018-05-31T02:18:05.344Z,103056.53
2018-05-31T02:20:31.724Z,103068.98
2018-05-31T02:22:58.095Z,103071.28
2018-05-31T02:25:24.348Z,103084.63
2018-05-31T02:27:50.772Z,103074.44
2018-05-31T02:30:17.073Z,103073.58
2018-05-31T02:32:43.334Z,103076.28
2018-05-31T02:35:09.791Z,103089.16
2018-05-31T02:37:36.404Z,103092.67
2018-05-31T02:40:02.706Z,103083.41
2018-05-31T02:42:28.976Z,103086.95
2018-05-31T02:44:55.399Z,103097.13
2018-05-31T02:47:21.660Z,103093.59
2018-05-31T02:49:48.141Z,103097.56
2018-05-31T02:52:14.609Z,103094.01
2018-05-31T02:54:40.827Z,103098.05
2018-05-31T02:57:07.335Z,103098.42
2018-05-31T02:59:33.909Z,103092.67
2018-05-31T03:02:00.120Z,103103.72
2018-05-31T03:04:26.413Z,103105.95
2018-05-31T03:06:52.947Z,103101.91
2018-05-31T03:09:19.230Z,103105.88
2018-05-31T03:11:45.608Z,103105.84
2018-05-31T03:14:12.033Z,103100.51
2018-05-31T03:16:38.283Z,103105.33
2018-05-31T03:19:04.725Z,103095.55
2018-05-31T03:21:31.130Z,103088.91
2018-05-31T03:23:57.351Z,103090.58
2018-05-31T03:26:23.879Z,103099.38
2018-05-31T03:28:50.235Z,103101.56
2018-05-31T03:31:16.517Z,103099.30
2018-05-31T03:33:42.919Z,103101.48
2018-05-31T03:36:09.392Z,103102.75
2018-05-31T03:38:35.940Z,103102.23
2018-05-31T03:41:02.321Z,103099.91
2018-05-31T03:43:28.747Z,103097.64
2018-05-31T03:45:54.984Z,103100.27
2018-05-31T03:48:21.441Z,103091.37
2018-05-31T03:50:47.773Z,103099.68
2018-05-31T03:53:13.982Z,103095.23
2018-05-31T03:55:40.298Z,103099.12
2018-05-31T03:58:06.704Z,103093.26
2018-05-31T04:00:32.988Z,103090.59
2018-05-31T04:02:59.512Z,103094.00
2018-05-31T04:05:25.900Z,103091.73
2018-05-31T04:07:52.144Z,103093.88
2018-05-31T04:10:18.549Z,103087.61
2018-05-31T04:12:44.990Z,103097.25
2018-05-31T04:15:11.229Z,103089.56
2018-05-31T04:17:37.721Z,103097.05
2018-05-31T04:20:04.228Z,103087.21
2018-05-31T04:22:30.422Z,103099.93
2018-05-31T04:24:56.885Z,103098.47
2018-05-31T04:27:23.265Z,103096.56
2018-05-31T04:29:49.553Z,103096.45
2018-05-31T04:32:15.899Z,103094.98
2018-05-31T04:34:42.198Z,103098.91
2018-05-31T04:37:08.465Z,103094.73
2018-05-31T04:39:35.233Z,103096.56
2018-05-31T04:42:01.581Z,103101.26
2018-05-31T04:44:27.817Z,103099.38
2018-05-31T04:46:54.328Z,103090.75
2018-05-31T04:49:20.705Z,103095.97
2018-05-31T04:51:47.056Z,103091.91
2018-05-31T04:54:13.454Z,103094.82
2018-05-31T04:56:39.844Z,103091.60
2018-05-31T04:59:06.114Z,103087.02
2018-05-31T05:01:32.525Z,103097.94
2018-05-31T05:03:58.886Z,103091.56
2018-05-31T05:06:25.163Z,103089.64
2018-05-31T05:08:51.638Z,103089.98
2018-05-31T05:11:18.009Z,103094.23
2018-05-31T05:13:44.278Z,103094.94
2018-05-31T05:16:10.615Z,103091.68
2018-05-31T05:18:37.340Z,103089.25
2018-05-31T05:21:03.615Z,103087.30
2018-05-31T05:23:30.087Z,103081.27
2018-05-31T05:25:56.564Z,103084.20
2018-05-31T05:28:22.806Z,103084.01
2018-05-31T05:30:49.216Z,103083.36
2018-05-31T05:33:15.719Z,103075.58
2018-05-31T05:35:41.862Z,103071.80
2018-05-31T05:38:08.221Z,103064.54
2018-05-31T05:40:34.600Z,103068.36
2018-05-31T05:43:00.815Z,103067.72
2018-05-31T05:45:27.219Z,103067.05
2018-05-31T05:47:53.795Z,103065.51
2018-05-31T05:50:20.039Z,103062.62
2018-05-31T05:52:46.412Z,103067.33
2018-05-31T05:55:12.754Z,103071.63
2018-05-31T05:57:38.988Z,103071.91
2018-05-31T06:00:05.396Z,103075.33
2018-05-31T06:02:31.811Z,103073.42
2018-05-31T06:04:58.097Z,103070.59
2018-05-31T06:07:24.472Z,103067.28
2018-05-31T06:09:50.944Z,103071.53
2018-05-31T06:12:17.185Z,103070.42
2018-05-31T06:14:43.618Z,103076.10
2018-05-31T06:17:10.163Z,103065.19
2018-05-31T06:19:36.386Z,103062.30
2018-05-31T06:22:02.758Z,103064.75
2018-05-31T06:24:29.143Z,103064.56
2018-05-31T06:26:55.350Z,103058.97
2018-05-31T06:29:21.785Z,103051.19
2018-05-31T06:31:48.195Z,103051.53
2018-05-31T06:34:14.458Z,103058.89
2018-05-31T06:36:40.837Z,103062.69
2018-05-31T06:39:07.171Z,103062.06
2018-05-31T06:41:33.456Z,103059.20
2018-05-31T06:43:59.802Z,103054.16
2018-05-31T06:46:26.181Z,103054.55
2018-05-31T06:48:52.384Z,103056.99
2018-05-31T06:51:18.685Z,103058.64
2018-05-31T06:53:44.975Z,103059.48
2018-05-31T06:56:11.193Z,103060.33
2018-05-31T06:58:37.624Z,103055.00
2018-05-31T07:01:03.936Z,103053.87
2018-05-31T07:03:30.118Z,103059.11
2018-05-31T07:05:56.394Z,103055.80
2018-05-31T07:08:22.718Z,103058.86
2018-05-31T07:10:51.835Z,103058.25
2018-05-31T07:13:18.208Z,103056.26
2018-05-31T07:15:44.779Z,103049.80
2018-05-31T07:18:11.015Z,103050.19
2018-05-31T07:20:37.391Z,103049.98
2018-05-31T07:23:03.866Z,103048.59
2018-05-31T07:25:30.043Z,103054.32
2018-05-31T07:27:56.420Z,103040.75
2018-05-31T07:30:22.798Z,103039.73
2018-05-31T07:32:49.046Z,103033.83
2018-05-31T07:35:15.428Z,103032.22
2018-05-31T07:37:41.938Z,103024.47
2018-05-31T07:40:08.147Z,103030.18
2018-05-31T07:42:34.852Z,103023.78
2018-05-31T07:45:01.305Z,103021.45
2018-05-31T07:47:27.607Z,103026.66
2018-05-31T07:49:54.092Z,103019.34
2018-05-31T07:52:20.540Z,103031.25
2018-05-31T07:54:46.759Z,103019.33
2018-05-31T07:57:13.142Z,103019.58
2018-05-31T07:59:39.599Z,103010.47
2018-05-31T08:02:05.831Z,103010.83
2018-05-31T08:04:32.232Z,103008.97
2018-05-31T08:06:58.606Z,103015.19
2018-05-31T08:09:24.834Z,103014.30
2018-05-31T08:11:51.275Z,103006.61
2018-05-31T08:14:17.679Z,102999.81
2018-05-31T08:16:43.943Z,103003.58
2018-05-31T08:19:10.377Z,103001.70
2018-05-31T08:21:36.818Z,103002.78
2018-05-31T08:24:03.040Z,103002.64
2018-05-31T08:26:29.369Z,103002.10
2018-05-31T08:28:55.662Z,103001.52
2018-05-31T08:31:21.966Z,103002.60
2018-05-31T08:33:48.369Z,103006.04
2018-05-31T08:36:14.910Z,103003.65
2018-05-31T08:38:41.123Z,102999.01
2018-05-31T08:41:07.415Z,103003.16
2018-05-31T08:43:33.916Z,103004.77
2018-05-31T08:46:00.124Z,102995.59
2018-05-31T08:48:26.595Z,102989.61
2018-05-31T08:50:53.070Z,102983.39
2018-05-31T08:53:19.349Z,102987.13
2018-05-31T08:55:45.726Z,102987.50
2018-05-31T08:58:12.149Z,102979.88
2018-05-31T09:00:38.380Z,102978.37
2018-05-31T09:03:04.706Z,102977.20
2018-05-31T09:05:31.109Z,102971.14
2018-05-31T09:07:57.345Z,102966.78
2018-05-31T09:10:23.828Z,102957.37
2018-05-31T09:12:50.153Z,102954.73
2018-05-31T09:15:16.445Z,102954.26
2018-05-31T09:17:42.935Z,102957.34
2018-05-31T09:20:09.440Z,102956.23
2018-05-31T09:22:35.650Z,102946.17
2018-05-31T09:25:02.145Z,102960.53
2018-05-31T09:27:28.654Z,102949.05
2018-05-31T09:29:54.875Z,102952.48
2018-05-31T09:32:21.232Z,102951.70
2018-05-31T09:34:47.687Z,102944.78
2018-05-31T09:37:13.881Z,102933.90
2018-05-31T09:39:40.344Z,102922.64
2018-05-31T09:42:06.823Z,102919.38
2018-05-31T09:44:33.352Z,102923.39
2018-05-31T09:46:59.712Z,102915.19
2018-05-31T09:49:26.219Z,102916.67
2018-05-31T09:51:52.508Z,102908.72
2018-05-31T09:54:18.994Z,102907.98
2018-05-31T09:56:45.465Z,102899.72
2018-05-31T09:59:11.673Z,102902.39
2018-05-31T10:01:38.105Z,102888.44
2018-05-31T10:04:04.500Z,102889.66
2018-05-31T10:06:30.723Z,102879.70
2018-05-31T10:08:57.104Z,102885.15
2018-05-31T10:11:23.404Z,102880.71
2018-05-31T10:14:04.687Z,102875.89
2018-05-31T10:16:31.067Z,102874.71
2018-05-31T10:18:57.327Z,102872.03
2018-05-31T10:21:23.659Z,102858.36
2018-05-31T10:23:50.054Z,102855.83
2018-05-31T10:26:16.325Z,102855.66
2018-05-31T10:28:42.674Z,102847.61
2018-05-31T10:31:09.167Z,102844.05
2018-05-31T10:33:35.367Z,102842.70
2018-05-31T10:36:01.768Z,102843.45
2018-05-31T10:38:28.105Z,102846.53
2018-05-31T10:40:54.307Z,102838.72
2018-05-31T10:43:20.741Z,102834.55
2018-05-31T10:45:47.305Z,102841.44
2018-05-31T10:48:13.504Z,102831.69
2018-05-31T10:50:39.914Z,102828.80
2018-05-31T10:53:06.367Z,102821.33
2018-05-31T10:55:32.634Z,102819.82
2018-05-31T10:57:59.011Z,102816.23
2018-05-31T11:00:25.431Z,102810.36
2018-05-31T11:02:51.628Z,102813.81
2018-05-31T11:05:18.064Z,102803.20
2018-05-31T11:07:44.391Z,102809.41
2018-05-31T11:10:10.622Z,102805.77
2018-05-31T11:12:37.042Z,102799.93
2018-05-31T11:15:03.622Z,102790.72
2018-05-31T11:17:29.846Z,102783.52
2018-05-31T11:19:56.232Z,102784.67
2018-05-31T11:22:22.658Z,102787.61
2018-05-31T11:24:48.896Z,102779.80
2018-05-31T11:27:15.279Z,102773.85
2018-05-31T11:29:41.617Z,102776.64
2018-05-31T11:32:07.839Z,102763.79
2018-05-31T11:34:34.204Z,102766.55
2018-05-31T11:37:00.618Z,102760.75
2018-05-31T11:39:26.824Z,102760.19
2018-05-31T11:41:53.287Z,102754.61
2018-05-31T11:44:19.784Z,102748.05
2018-05-31T11:46:46.148Z,102746.34
2018-05-31T11:49:12.602Z,102742.95
2018-05-31T11:51:39.006Z,102735.14
2018-05-31T11:54:05.193Z,102746.35
2018-05-31T11:56:31.699Z,102735.41
2018-05-31T11:58:58.196Z,102733.04
2018-05-31T12:01:24.491Z,102733.94
2018-05-31T12:03:50.937Z,102723.75
2018-05-31T12:06:17.297Z,102724.11
2018-05-31T12:08:43.624Z,102721.17
2018-05-31T12:11:10.088Z,102720.79
2018-05-31T12:13:36.481Z,102714.47
2018-05-31T12:16:02.850Z,102707.66
2018-05-31T12:18:29.382Z,102711.89
2018-05-31T12:20:55.861Z,102703.10
2018-05-31T12:23:22.083Z,102697.87
2018-05-31T12:25:48.542Z,102702.91
2018-05-31T12:28:14.829Z,102695.75
2018-05-31T12:30:41.061Z,102700.20
2018-05-31T12:33:07.522Z,102684.52
2018-05-31T12:35:33.980Z,102686.69
2018-05-31T12:38:00.238Z,102682.52
2018-05-31T12:40:26.675Z,102675.79
2018-05-31T12:42:53.093Z,102672.36
2018-05-31T12:45:19.374Z,102667.73
2018-05-31T12:47:46.017Z,102661.41
2018-05-31T12:50:12.329Z,102664.31
2018-05-31T12:52:38.571Z,102657.58
2018-05-31T12:55:04.998Z,102662.00
2018-05-31T12:57:31.405Z,102665.13
2018-05-31T12:59:57.607Z,102662.17
2018-05-31T13:02:23.983Z,102662.77
2018-05-31T13:04:50.387Z,102653.03
2018-05-31T13:07:16.621Z,102647.73
2018-05-31T13:09:43.113Z,102638.46
2018-05-31T13:12:09.656Z,102629.16
2018-05-31T13:14:35.906Z,102634.11
2018-05-31T13:17:02.318Z,102628.36
2018-05-31T13:19:28.724Z,102621.33
2018-05-31T13:21:54.899Z,102615.27
2018-05-31T13:24:21.246Z,102613.75
2018-05-31T13:26:47.715Z,102612.38
2018-05-31T13:29:13.938Z,102605.31
2018-05-31T13:31:40.416Z,102605.82
2018-05-31T13:34:06.811Z,102605.47
2018-05-31T13:36:33.023Z,102605.61
2018-05-31T13:38:59.393Z,102596.59
2018-05-31T13:41:25.845Z,102594.53
2018-05-31T13:43:52.065Z,102592.59
2018-05-31T13:46:18.562Z,102587.66
2018-05-31T13:48:45.131Z,102582.72
2018-05-31T13:51:11.362Z,102574.59
2018-05-31T13:53:37.696Z,102575.91
2018-05-31T13:56:04.127Z,102558.69
2018-05-31T13:58:30.346Z,102557.95
2018-05-31T14:00:56.706Z,102562.56
2018-05-31T14:03:23.153Z,102550.77
2018-05-31T14:05:49.374Z,102555.92
2018-05-31T14:08:15.852Z,102541.45
2018-05-31T14:10:42.225Z,102541.76
2018-05-31T14:13:08.462Z,102537.91
2018-05-31T14:15:34.863Z,102529.28
2018-05-31T14:18:01.319Z,102528.81
2018-05-31T14:20:34.724Z,102524.99
2018-05-31T14:23:01.026Z,102525.23
2018-05-31T14:25:27.471Z,102524.25
2018-05-31T14:27:53.774Z,102521.20
2018-05-31T14:30:20.174Z,102512.66
2018-05-31T14:32:46.692Z,102507.64
2018-05-31T14:35:12.906Z,102509.40
2018-05-31T14:37:39.366Z,102499.09
2018-05-31T14:40:05.879Z,102495.57
2018-05-31T14:42:32.119Z,102496.42
2018-05-31T14:44:58.584Z,102488.75
2018-05-31T14:47:25.038Z,102490.53
2018-05-31T14:49:51.466Z,102485.16
2018-05-31T14:52:17.853Z,102482.97
2018-05-31T14:54:44.271Z,102483.27
2018-05-31T14:57:10.536Z,102470.13
2018-05-31T14:59:36.842Z,102471.17
2018-05-31T15:02:03.320Z,102474.36
2018-05-31T15:04:29.567Z,102472.27
2018-05-31T15:06:55.907Z,102459.66
2018-05-31T15:09:22.404Z,102454.48
2018-05-31T15:11:48.638Z,102453.20
2018-05-31T15:14:15.080Z,102450.05
2018-05-31T15:19:07.532Z,102443.59
2018-05-31T15:21:33.850Z,102445.28
2018-05-31T15:24:00.269Z,102430.58
2018-05-31T15:26:26.514Z,102420.84
2018-05-31T15:28:53.000Z,102426.52
2018-05-31T15:31:19.354Z,102417.66
2018-05-31T15:33:45.604Z,102417.93
2018-05-31T15:36:12.028Z,102417.97
2018-05-31T15:38:38.327Z,102401.05
2018-05-31T15:41:04.576Z,102406.65
2018-05-31T15:43:30.957Z,102403.77
2018-05-31T15:45:57.281Z,102397.46
2018-05-31T15:48:23.482Z,102398.64
2018-05-31T15:50:50.036Z,102380.43
2018-05-31T15:53:16.492Z,102386.17
2018-05-31T15:55:42.743Z,102380.17
2018-05-31T15:58:09.133Z,102380.35
2018-05-31T16:00:35.501Z,102376.97
2018-05-31T16:03:01.781Z,102371.67
2018-05-31T16:05:28.195Z,102371.09
2018-05-31T16:07:54.600Z,102364.63
2018-05-31T16:10:20.857Z,102369.35
2018-05-31T16:12:47.214Z,102362.91
2018-05-31T16:15:13.674Z,102359.23
2018-05-31T16:17:39.945Z,102363.31
2018-05-31T16:20:06.243Z,102353.28
2018-05-31T16:22:32.549Z,102348.70
2018-05-31T16:24:58.790Z,102346.20
2018-05-31T16:27:25.155Z,102344.19
2018-05-31T16:29:51.644Z,102346.50
2018-05-31T16:32:17.833Z,102335.94
2018-05-31T16:34:44.250Z,102333.86
2018-05-31T16:37:10.720Z,102334.08
2018-05-31T16:39:36.922Z,102322.33
2018-05-31T16:42:03.328Z,102311.33
2018-05-31T16:44:29.817Z,102311.74
2018-05-31T16:46:56.106Z,102297.27
2018-05-31T16:49:22.420Z,102289.77
2018-05-31T16:51:49.041Z,102302.73
2018-05-31T16:54:15.066Z,102298.67
2018-05-31T16:56:41.425Z,102297.53
2018-05-31T16:59:07.810Z,102278.45
2018-05-31T17:01:34.021Z,102286.32
2018-05-31T17:04:00.670Z,102279.33
2018-05-31T17:06:26.934Z,102286.48
2018-05-31T17:08:53.145Z,102275.80
2018-05-31T17:11:19.570Z,102280.48
2018-05-31T17:13:45.951Z,102277.11
2018-05-31T17:16:12.233Z,102266.03
2018-05-31T17:18:38.507Z,102274.56
2018-05-31T17:21:04.828Z,102280.09
2018-05-31T17:23:30.938Z,102277.02
2018-05-31T17:25:57.068Z,102263.14
2018-05-31T17:28:23.290Z,102264.22
2018-05-31T17:30:49.417Z,102264.98
2018-05-31T17:33:15.548Z,102255.36
2018-05-31T17:35:41.677Z,102246.75
2018-05-31T17:38:07.743Z,102246.06
2018-05-31T17:40:33.935Z,102238.98
2018-05-31T17:43:00.376Z,102240.05
2018-05-31T17:45:26.553Z,102232.75
2018-05-31T17:47:52.846Z,102234.36
2018-05-31T17:50:19.142Z,102231.38
2018-05-31T17:52:45.528Z,102226.28
2018-05-31T17:55:12.018Z,102221.36
2018-05-31T17:57:38.379Z,102223.23
2018-05-31T18:00:04.649Z,102215.88
2018-05-31T18:02:30.929Z,102224.50
2018-05-31T18:04:57.230Z,102203.16
2018-05-31T18:07:23.426Z,102198.53
2018-05-31T18:09:49.872Z,102197.09
2018-05-31T18:12:16.358Z,102200.76
2018-05-31T18:14:42.626Z,102201.42
2018-05-31T18:17:08.997Z,102193.40
2018-05-31T18:19:35.452Z,102196.91
2018-05-31T18:22:01.756Z,102192.62
2018-05-31T18:24:28.263Z,102204.11
2018-05-31T18:26:54.740Z,102214.48
2018-05-31T18:29:20.985Z,102192.84
2018-05-31T18:31:47.452Z,102214.23
2018-05-31T18:34:13.750Z,102212.54
2018-05-31T18:36:39.966Z,102209.69
2018-05-31T18:39:06.326Z,102218.48
2018-05-31T18:41:32.638Z,102219.98
2018-05-31T18:43:58.920Z,102211.66
2018-05-31T18:46:25.155Z,102213.63
2018-05-31T18:48:51.607Z,102205.60
2018-05-31T18:51:18.585Z,102204.67
2018-05-31T18:53:45.030Z,102208.17
2018-05-31T18:56:11.389Z,102198.92
2018-05-31T18:58:37.742Z,102205.84
2018-05-31T19:01:04.033Z,102203.45
2018-05-31T19:03:30.452Z,102203.72
2018-05-31T19:05:56.772Z,102197.61
2018-05-31T19:08:23.096Z,102205.86
2018-05-31T19:10:49.256Z,102196.37
2018-05-31T19:13:21.369Z,102189.47
2018-05-31T19:15:47.778Z,102185.03
2018-05-31T19:18:19.977Z,102179.04
2018-05-31T19:20:46.516Z,102180.24
2018-05-31T19:23:12.837Z,102178.17
2018-05-31T19:25:38.926Z,102169.37
2018-05-31T19:28:05.363Z,102161.95
2018-05-31T19:30:37.518Z,102169.37
2018-05-31T19:33:03.783Z,102153.88
2018-05-31T19:35:36.119Z,102155.30
2018-05-31T19:38:02.678Z,102144.65
2018-05-31T19:40:28.965Z,102140.41
2018-05-31T19:43:01.212Z,102143.72
2018-05-31T19:45:27.555Z,102141.59
2018-05-31T19:47:53.711Z,102133.41
2018-05-31T19:50:19.938Z,102128.32
2018-05-31T19:52:52.265Z,102129.03
2018-05-31T19:55:18.660Z,102119.15
2018-05-31T19:57:50.947Z,102123.09
2018-05-31T20:00:23.258Z,102115.05
2018-05-31T20:02:55.579Z,102113.62
2018-05-31T20:05:22.012Z,102111.55
2018-05-31T20:10:40.507Z,102103.20
2018-05-31T20:13:06.726Z,102112.34
2018-05-31T20:15:32.925Z,102108.40
2018-05-31T20:17:59.523Z,102100.01
2018-05-31T20:20:25.682Z,102097.94
2018-05-31T20:22:51.928Z,102092.73
2018-05-31T20:25:18.261Z,102095.16
2018-05-31T20:27:44.464Z,102098.17
2018-05-31T20:30:10.710Z,102079.56
2018-05-31T20:32:37.042Z,102096.38
2018-05-31T20:35:03.296Z,102098.81
2018-05-31T20:37:29.527Z,102096.78
2018-05-31T20:39:56.126Z,102098.56
2018-05-31T20:42:22.291Z,102093.36
2018-05-31T20:44:48.503Z,102089.97
2018-05-31T20:47:15.171Z,102084.42
2018-05-31T20:49:41.380Z,102086.66
2018-05-31T20:52:07.583Z,102079.20
2018-05-31T20:54:34.144Z,102085.84
2018-05-31T20:57:00.470Z,102082.80
2018-05-31T20:59:26.616Z,102078.01
2018-05-31T21:01:53.192Z,102068.19
2018-05-31T21:04:19.400Z,102073.66
2018-05-31T21:06:45.531Z,102063.87
2018-05-31T21:09:12.131Z,102062.70
2018-05-31T21:11:38.342Z,102054.73
2018-05-31T21:14:04.599Z,102047.66
2018-05-31T21:16:31.093Z,102046.38
2018-05-31T21:18:57.270Z,102039.25
2018-05-31T21:21:23.450Z,102045.94
2018-05-31T21:23:49.953Z,102037.47
2018-05-31T21:26:16.170Z,102028.66
2018-05-31T21:28:42.372Z,102025.30
2018-05-31T21:31:08.820Z,102026.64
2018-05-31T21:33:34.997Z,102025.88
2018-05-31T21:36:01.157Z,102032.24
2018-05-31T21:38:27.685Z,102021.06
2018-05-31T21:40:53.861Z,102023.45
2018-05-31T21:43:20.009Z,102015.98
2018-05-31T21:45:46.408Z,102020.06
2018-05-31T21:48:12.619Z,102013.70
2018-05-31T21:50:38.778Z,102002.14
2018-05-31T21:53:05.196Z,101996.27
2018-05-31T21:55:31.429Z,101990.09
2018-05-31T21:57:58.228Z,101988.80
2018-05-31T22:00:30.307Z,101986.67
2018-05-31T22:02:56.455Z,101987.87
2018-05-31T22:05:22.840Z,101981.41
2018-05-31T22:07:49.092Z,101981.39
2018-05-31T22:10:15.282Z,101970.84
2018-05-31T22:12:41.761Z,101976.19
2018-05-31T22:15:08.102Z,101976.27
2018-05-31T22:17:34.254Z,101982.25
2018-05-31T22:20:00.586Z,101986.54
2018-05-31T22:22:26.947Z,101982.70
2018-05-31T22:24:53.157Z,101981.02
2018-05-31T22:27:19.471Z,101975.64
2018-05-31T22:29:45.740Z,101978.41
2018-05-31T22:32:11.986Z,101969.16
2018-05-31T22:34:38.371Z,101966.67
2018-05-31T22:37:04.685Z,101966.84
2018-05-31T22:39:30.941Z,101962.44
2018-05-31T22:41:57.332Z,101969.17
2018-05-31T22:44:23.804Z,101970.33
2018-05-31T22:46:49.985Z,101964.67
2018-05-31T22:49:16.381Z,101955.73
2018-05-31T22:51:42.801Z,101940.60
2018-05-31T22:54:09.016Z,101942.49
2018-05-31T22:56:35.495Z,101938.53
2018-05-31T22:59:02.163Z,101932.03
2018-05-31T23:01:28.312Z,101932.03
2018-05-31T23:03:54.771Z,101930.25
2018-05-31T23:06:21.263Z,101929.95
2018-05-31T23:08:47.498Z,101925.55
2018-05-31T23:11:13.886Z,101920.63
2018-05-31T23:13:40.390Z,101924.15
2018-05-31T23:16:06.642Z,101912.95
2018-05-31T23:18:33.090Z,101912.48
2018-05-31T23:20:59.495Z,101907.20
2018-05-31T23:23:25.710Z,101899.09
2018-05-31T23:25:52.206Z,101899.09
2018-05-31T23:28:18.620Z,101896.50
2018-05-31T23:30:44.835Z,101904.84
2018-05-31T23:33:11.222Z,101896.30
2018-05-31T23:35:37.726Z,101891.26
2018-05-31T23:38:03.961Z,101888.98
2018-05-31T23:40:30.451Z,101888.90
2018-05-31T23:42:56.943Z,101869.97
2018-05-31T23:45:23.152Z,101875.25
2018-05-31T23:47:49.590Z,101876.16
2018-05-31T23:50:15.948Z,101868.16
2018-05-31T23:52:42.122Z,101868.19
2018-05-31T23:55:08.429Z,101862.00
2018-05-31T23:57:34.823Z,101862.71
